ROTAER D-AMDT 41/19 Ver Mudanças

Brigadeiro Antônio Cabral ( SNDV ) / DIVINÓPOLIS, MG 20 10 55S/044 52 12W
AD PUB UTC-3 VFR L21 , L26 795 (2608)

17 - L12 - ( 1540x30 ASPH 20/F/B/X/T L14 , L15 ) - L12 - 35

SBBS (CINDACTA 1)
CMB- [1] PF SER - S1  
MET -

[2] [3]

RMK -

HORÁRIO DE FUNCIONAMENTO
  1. OPS noturna compulsório CTC através dos TEL: (37) 98827-5088 ou (31) 98492-3432 com antecedência MNM de 04 (quatro) horas
DADOS SOBRE OS PÁTIOS, PISTAS DE TAXI E PONTOS DE VERIFICAÇÃO
  1. ACFT com envergadura igual ou superior a 24,57m ingresso ou saída da RWY somente pela TWY de acesso à THR 17
OBSTÁCULO DE AERÓDROMO
  1. OBS OBST (morro) DIST 1946M da THR 34, AZM 121DEG
COMPL -
  • [1] Para INFO ADDN sobre AVGAS/JET ligar para (37)99816-5616.
  • [2] Usar código de localidade SNDV para acessar METAR/SPECI na REDEMET
  • [3] ERAA (Estação de Radiodifusão Automática de Aeródromo) FREQ 132.350MHZ
TEMP (0)

Suplementos AIP (0)

NOTAM (1)

F1891/19 R F1499/19 23/09/2019 20:42
PJE SUBJ AUTH/COOR ACC BRASILIA ACONTECERA CENTRO COORD
201055S/0445212W (DIVINOPOLIS, MG) RAIO 2KM RTO


Nascer/Por do Sol

08:24

21:03


METAR

200100Z AUTO 21003KT 170V250 CAVOK 22/18 Q1016=

TAF

Não disponível


Cartas (0)


Rotas Preferenciais (0)